Terminal Aerodrome Forecast
Issued by NWS

Home | Current Version | Previous Version | Text Only | Print | Product List | Glossary On
Versions: 1 2 3 4 5 6 7 8 9 10 11 12 13 14 15
000
FTAK31 PAJN 222300
TAFAGY
TAF
PAGY 222338Z 2300/2324 21018G28KT P6SM VCSH SCT050 OVC080
     FM230200 20012KT P6SM BKN080
     FM230500 VRB03KT P6SM SCT050 BKN080
     FM230900 04010KT P6SM SCT100
     FM231500 04010G20KT P6SM FEW150
      AMD LTD TO CLD VIS AND WIND=

USA.gov is the U.S. government's official web portal to all federal, state and local government web resources and services.